Time;durP1;ratioP1;P1;durP2;ratioP2;P2;SDS_P1;SDS_P2;PMS_P1;PMS_P2;Temp;Humidity;BMP_temperature;BMP_pressure;BME280_temperature;BME280_humidity;BME280_pressure;Samples;Min_cycle;Max_cycle;Signal;HPM_P1;HPM_P2
2022/01/11 00:01:54;;;;;;;24.05;9.02;;;-1.70;99.90;;;;;;5009457;28;20082;-87
2022/01/11 00:04:20;;;;;;;35.25;10.23;;;-1.70;99.90;;;;;;5011365;28;20412;-86
2022/01/11 00:06:49;;;;;;;22.70;7.65;;;-1.70;99.90;;;;;;4993766;28;20026;-87
2022/01/11 00:09:51;;;;;;;37.90;8.90;;;-1.70;99.90;;;;;;4994357;28;20165;-87
2022/01/11 00:12:10;;;;;;;49.22;9.45;;;-1.70;99.90;;;;;;5000955;28;20042;-87
2022/01/11 00:14:37;;;;;;;62.40;9.45;;;-1.70;99.90;;;;;;4993252;28;20046;-86
2022/01/11 00:17:03;;;;;;;46.42;9.15;;;-1.80;99.90;;;;;;4996930;28;20046;-87
2022/01/11 00:19:36;;;;;;;30.13;9.30;;;-1.80;99.90;;;;;;5001687;28;20402;-88
2022/01/11 00:22:18;;;;;;;39.88;10.77;;;-1.80;99.90;;;;;;4980424;28;20033;-87
2022/01/11 00:24:46;;;;;;;46.03;10.52;;;-1.80;99.90;;;;;;4996281;28;20054;-87
2022/01/11 00:27:12;;;;;;;45.40;9.20;;;-1.80;99.90;;;;;;4990887;28;20030;-87
2022/01/11 00:29:44;;;;;;;29.30;8.25;;;-1.80;99.90;;;;;;4996587;28;20038;-86
2022/01/11 00:32:16;;;;;;;53.45;8.68;;;-1.80;99.90;;;;;;4994214;28;20033;-87
2022/01/11 00:34:50;;;;;;;25.80;8.85;;;-1.80;99.90;;;;;;4993300;28;20062;-86
2022/01/11 00:37:23;;;;;;;51.60;10.35;;;-1.90;99.90;;;;;;5008553;28;20040;-87
2022/01/11 00:39:55;;;;;;;49.45;8.95;;;-1.80;99.90;;;;;;4996759;28;20026;-86
2022/01/11 00:42:22;;;;;;;54.97;8.57;;;-1.80;99.90;;;;;;5006056;28;20026;-87
2022/01/11 00:44:49;;;;;;;52.78;10.52;;;-1.90;99.90;;;;;;5012933;28;20157;-87
2022/01/11 00:47:19;;;;;;;85.10;10.93;;;-1.90;99.90;;;;;;5012578;28;20028;-87
2022/01/11 00:49:45;;;;;;;34.35;8.38;;;-1.90;99.90;;;;;;4997250;28;20474;-86
2022/01/11 00:52:16;;;;;;;36.75;8.63;;;-1.90;99.90;;;;;;5009852;28;20034;-86
2022/01/11 00:54:45;;;;;;;26.15;8.95;;;-1.90;99.90;;;;;;5007431;28;20041;-87
2022/01/11 00:57:26;;;;;;;25.17;8.32;;;-1.90;99.90;;;;;;4976925;28;20034;-87
2022/01/11 00:59:53;;;;;;;31.45;8.98;;;-1.90;99.90;;;;;;4992800;28;20109;-87
2022/01/11 01:02:22;;;;;;;54.60;8.60;;;-1.90;99.90;;;;;;4993884;28;20030;-87
2022/01/11 01:04:49;;;;;;;44.40;8.27;;;-2.00;99.90;;;;;;4976999;28;20530;-87
2022/01/11 01:07:15;;;;;;;26.58;7.85;;;-2.00;99.90;;;;;;4993135;28;20088;-87
2022/01/11 01:09:54;;;;;;;39.38;8.45;;;-2.10;99.90;;;;;;4996138;28;20034;-87
2022/01/11 01:12:26;;;;;;;39.08;8.90;;;-2.10;99.90;;;;;;5008765;22;20033;-88
2022/01/11 01:14:55;;;;;;;31.60;8.25;;;-2.10;99.90;;;;;;5049701;28;20516;-87
2022/01/11 01:17:27;;;;;;;37.22;8.02;;;-2.20;99.90;;;;;;5034822;28;20405;-87
2022/01/11 01:19:53;;;;;;;69.68;9.50;;;-2.20;99.90;;;;;;5021540;28;20064;-86
2022/01/11 01:22:19;;;;;;;21.52;8.80;;;-2.20;99.90;;;;;;5027986;28;20053;-86
2022/01/11 01:24:46;;;;;;;25.50;8.07;;;-2.30;99.90;;;;;;5024786;28;20038;-87
2022/01/11 01:27:18;;;;;;;61.45;8.40;;;-2.30;99.90;;;;;;5015022;28;20494;-88
2022/01/11 01:29:47;;;;;;;22.55;9.25;;;-2.30;99.90;;;;;;5010885;28;20041;-88
2022/01/11 01:32:16;;;;;;;28.48;7.95;;;-2.30;99.90;;;;;;5028058;28;20029;-86
2022/01/11 01:34:46;;;;;;;24.48;7.55;;;-2.30;99.90;;;;;;5031405;28;20026;-87
2022/01/11 01:37:13;;;;;;;81.18;9.32;;;-2.30;99.90;;;;;;5011290;28;20033;-87
2022/01/11 01:39:38;;;;;;;27.92;7.43;;;-2.30;99.90;;;;;;4995514;28;20034;-87
2022/01/11 01:42:05;;;;;;;73.63;8.73;;;-2.40;99.90;;;;;;5014710;28;20036;-87
2022/01/11 01:44:34;;;;;;;32.58;8.27;;;-2.50;99.90;;;;;;5014508;28;20029;-87
2022/01/11 01:47:01;;;;;;;33.88;7.63;;;-2.50;99.90;;;;;;5009222;28;20052;-88
2022/01/11 01:49:28;;;;;;;23.90;7.78;;;-2.60;99.90;;;;;;5011376;28;20077;-87
2022/01/11 01:51:56;;;;;;;30.55;7.43;;;-2.60;99.90;;;;;;4998649;28;20041;-87
2022/01/11 01:54:24;;;;;;;23.10;8.05;;;-2.60;99.90;;;;;;5030623;28;20561;-87
2022/01/11 01:56:50;;;;;;;21.00;8.55;;;-2.70;99.90;;;;;;5030489;28;20030;-87
2022/01/11 01:59:19;;;;;;;27.55;7.80;;;-2.70;99.90;;;;;;5004121;28;20087;-87
2022/01/11 02:01:49;;;;;;;21.92;7.70;;;-2.70;99.90;;;;;;4998859;28;20132;-87
2022/01/11 02:04:17;;;;;;;18.73;8.10;;;-2.70;99.90;;;;;;5014152;28;20525;-87
2022/01/11 02:06:44;;;;;;;28.10;8.70;;;-2.70;99.90;;;;;;5030663;28;20030;-88
2022/01/11 02:09:17;;;;;;;21.63;8.45;;;-2.70;99.90;;;;;;5030815;28;20363;-89
2022/01/11 02:11:43;;;;;;;33.20;8.35;;;-2.70;99.90;;;;;;5024605;28;20025;-87
2022/01/11 02:14:09;;;;;;;39.70;8.43;;;-2.80;99.90;;;;;;5013981;28;20569;-87
2022/01/11 02:16:39;;;;;;;20.83;8.07;;;-2.80;99.90;;;;;;5029356;28;20037;-88
2022/01/11 02:19:05;;;;;;;21.65;7.47;;;-2.80;99.90;;;;;;5030540;28;20029;-88
2022/01/11 02:21:31;;;;;;;43.90;8.52;;;-2.80;99.90;;;;;;5010179;28;20034;-87
2022/01/11 02:24:00;;;;;;;24.17;7.60;;;-2.90;99.90;;;;;;4994523;28;20531;-87
2022/01/11 02:26:26;;;;;;;28.88;8.70;;;-2.90;99.90;;;;;;4996685;28;20041;-87
2022/01/11 02:28:53;;;;;;;29.38;8.27;;;-2.90;99.90;;;;;;5030130;28;20052;-87
2022/01/11 02:31:20;;;;;;;32.72;8.27;;;-2.90;99.90;;;;;;5029675;28;20135;-87
2022/01/11 02:33:50;;;;;;;19.88;8.30;;;-2.90;99.90;;;;;;5013389;28;20041;-87
2022/01/11 02:36:40;;;;;;;36.33;9.52;;;-2.80;99.90;;;;;;5013334;28;20484;-87
2022/01/11 02:39:05;;;;;;;32.80;8.63;;;-2.80;99.90;;;;;;5029842;28;20711;-87
2022/01/11 02:41:31;;;;;;;41.50;7.95;;;-2.80;99.90;;;;;;5013360;28;20095;-87
2022/01/11 02:43:58;;;;;;;31.60;7.93;;;-2.80;99.90;;;;;;5045704;28;20029;-87
2022/01/11 02:46:25;;;;;;;42.92;8.82;;;-2.80;99.90;;;;;;5030748;28;20021;-86
2022/01/11 02:48:56;;;;;;;22.73;9.25;;;-2.80;99.90;;;;;;5030123;28;20079;-86
2022/01/11 02:51:24;;;;;;;44.72;9.52;;;-2.80;99.90;;;;;;5029633;28;20036;-87
2022/01/11 02:53:52;;;;;;;31.60;7.80;;;-2.80;99.90;;;;;;5046306;28;20068;-87
2022/01/11 02:56:19;;;;;;;27.48;8.77;;;-2.80;99.90;;;;;;5008706;28;20033;-87
2022/01/11 02:58:52;;;;;;;20.30;7.43;;;-2.80;99.90;;;;;;5026727;28;20037;-87
2022/01/11 03:01:18;;;;;;;36.50;7.78;;;-2.80;99.90;;;;;;5002676;28;20083;-87
2022/01/11 03:03:48;;;;;;;31.25;8.82;;;-2.80;99.90;;;;;;5029369;28;20033;-87
2022/01/11 03:06:15;;;;;;;75.50;10.75;;;-2.80;99.90;;;;;;5022535;28;20097;-87
2022/01/11 03:08:49;;;;;;;29.02;8.02;;;-2.70;99.90;;;;;;5026270;28;20026;-87
2022/01/11 03:11:20;;;;;;;27.70;7.70;;;-2.70;99.90;;;;;;5018494;28;20029;-87
2022/01/11 03:13:48;;;;;;;32.10;8.27;;;-2.70;99.90;;;;;;5035338;28;20041;-87
2022/01/11 03:16:18;;;;;;;25.30;8.43;;;-2.70;99.90;;;;;;5026898;28;20053;-87
2022/01/11 03:18:49;;;;;;;42.95;9.43;;;-2.70;99.90;;;;;;5012720;28;20124;-88
2022/01/11 03:21:15;;;;;;;55.53;8.77;;;-2.70;99.90;;;;;;5013255;28;20072;-87
2022/01/11 03:23:41;;;;;;;27.17;8.48;;;-2.70;99.90;;;;;;4996524;28;20107;-87
2022/01/11 03:26:10;;;;;;;27.77;8.82;;;-2.70;99.90;;;;;;5012400;28;20768;-86
2022/01/11 03:28:36;;;;;;;28.25;7.82;;;-2.80;99.90;;;;;;5029161;28;20021;-86
2022/01/11 03:31:03;;;;;;;26.23;8.90;;;-2.80;99.90;;;;;;5023209;28;20036;-86
2022/01/11 03:33:29;;;;;;;20.77;7.40;;;-2.80;99.90;;;;;;5012683;28;20038;-87
2022/01/11 03:36:00;;;;;;;29.52;8.57;;;-2.80;99.90;;;;;;4999902;28;20044;-87
2022/01/11 03:38:33;;;;;;;24.40;7.90;;;-2.90;99.90;;;;;;5022976;28;20057;-88
2022/01/11 03:41:03;;;;;;;23.90;7.45;;;-2.90;99.90;;;;;;5009756;28;20026;-87
2022/01/11 03:43:29;;;;;;;27.55;7.38;;;-2.90;99.90;;;;;;5025657;28;20124;-87
2022/01/11 03:45:54;;;;;;;28.35;7.18;;;-2.90;99.90;;;;;;5009278;28;20101;-87
2022/01/11 03:48:21;;;;;;;22.17;7.88;;;-3.00;99.90;;;;;;5028119;28;20025;-87
2022/01/11 03:50:55;;;;;;;24.20;6.90;;;-3.00;99.90;;;;;;5029036;28;20021;-87
2022/01/11 03:53:28;;;;;;;26.35;7.07;;;-3.00;99.90;;;;;;5033624;28;20045;-87
2022/01/11 03:56:10;;;;;;;23.67;7.05;;;-3.10;99.90;;;;;;5016653;28;20025;-88
2022/01/11 03:58:35;;;;;;;23.48;6.43;;;-3.10;99.90;;;;;;5014391;28;20108;-87
2022/01/11 04:01:01;;;;;;;25.98;7.05;;;-3.10;99.90;;;;;;5031288;28;20081;-87
2022/01/11 04:03:28;;;;;;;30.08;6.72;;;-3.00;99.90;;;;;;5032745;28;20040;-88
2022/01/11 04:05:56;;;;;;;21.33;6.72;;;-3.10;99.90;;;;;;5032221;28;20048;-87
2022/01/11 04:08:23;;;;;;;35.42;7.72;;;-3.10;99.90;;;;;;5032863;28;20025;-87
2022/01/11 04:10:54;;;;;;;29.73;8.25;;;-3.10;99.90;;;;;;5032924;28;20486;-87
2022/01/11 04:13:26;;;;;;;21.77;7.68;;;-3.10;99.90;;;;;;5000636;28;20041;-87
2022/01/11 04:15:52;;;;;;;21.42;7.90;;;-3.10;99.90;;;;;;5016566;28;20036;-88
2022/01/11 04:18:18;;;;;;;26.88;8.23;;;-3.10;99.90;;;;;;5016414;28;20105;-87
2022/01/11 04:20:43;;;;;;;37.65;7.40;;;-3.10;99.90;;;;;;5007711;28;20034;-87
2022/01/11 04:23:12;;;;;;;16.95;7.25;;;-3.10;99.90;;;;;;5016708;28;20192;-87
2022/01/11 04:25:42;;;;;;;52.47;8.95;;;-3.10;99.90;;;;;;4998975;28;20039;-87
2022/01/11 04:28:11;;;;;;;17.08;7.45;;;-3.10;99.90;;;;;;5014844;28;20075;-87
2022/01/11 04:30:40;;;;;;;23.13;7.53;;;-3.10;99.90;;;;;;5003798;28;20247;-88
2022/01/11 04:33:06;;;;;;;39.60;9.02;;;-3.10;99.90;;;;;;5014857;28;20068;-87
2022/01/11 04:35:32;;;;;;;29.80;7.53;;;-3.10;99.90;;;;;;4993532;28;20271;-88
2022/01/11 04:37:58;;;;;;;41.08;9.23;;;-3.10;99.90;;;;;;4995647;28;20108;-88
2022/01/11 04:40:24;;;;;;;43.35;9.32;;;-3.10;99.90;;;;;;5014635;28;20037;-88
2022/01/11 04:42:50;;;;;;;25.83;8.40;;;-3.10;99.90;;;;;;5015008;28;20109;-88
2022/01/11 04:45:16;;;;;;;26.85;8.23;;;-3.10;99.90;;;;;;5009934;28;20669;-87
2022/01/11 04:47:45;;;;;;;25.05;8.98;;;-3.20;99.90;;;;;;5031093;28;20437;-87
2022/01/11 04:50:11;;;;;;;30.73;9.40;;;-3.20;99.90;;;;;;5030448;28;20497;-88
2022/01/11 04:52:41;;;;;;;36.03;9.63;;;-3.20;99.90;;;;;;5047493;28;20095;-88
2022/01/11 04:55:08;;;;;;;27.10;9.27;;;-3.20;99.90;;;;;;4999283;28;20037;-88
2022/01/11 04:57:33;;;;;;;28.08;8.90;;;-3.30;99.90;;;;;;5013072;28;20128;-88
2022/01/11 04:59:59;;;;;;;32.85;8.80;;;-3.30;99.90;;;;;;5007492;28;20124;-88
2022/01/11 05:02:26;;;;;;;30.70;8.75;;;-3.40;99.90;;;;;;4998118;28;20039;-88
2022/01/11 05:04:52;;;;;;;27.60;8.50;;;-3.40;99.90;;;;;;4985821;28;20128;-87
2022/01/11 05:07:23;;;;;;;28.92;8.95;;;-3.30;99.90;;;;;;4994561;28;20045;-87
2022/01/11 05:09:53;;;;;;;31.77;10.35;;;-3.30;99.90;;;;;;4991367;28;20061;-88
2022/01/11 05:12:19;;;;;;;30.65;9.10;;;-3.30;99.90;;;;;;5014708;28;20049;-88
2022/01/11 05:14:44;;;;;;;37.40;10.25;;;-3.20;99.90;;;;;;5014067;28;20033;-88
2022/01/11 05:17:10;;;;;;;25.35;8.05;;;-3.20;99.90;;;;;;5014408;28;20055;-88
2022/01/11 05:19:36;;;;;;;33.90;8.80;;;-3.20;99.90;;;;;;5028501;28;20036;-87
2022/01/11 05:22:02;;;;;;;25.55;9.05;;;-3.10;99.90;;;;;;5014248;28;20122;-87
2022/01/11 05:24:30;;;;;;;29.52;10.43;;;-3.10;99.90;;;;;;5047013;28;20112;-88
2022/01/11 05:26:55;;;;;;;28.10;9.82;;;-3.20;99.90;;;;;;5016899;28;20160;-88
2022/01/11 05:29:21;;;;;;;24.65;8.45;;;-3.10;99.90;;;;;;5024224;28;20427;-88
2022/01/11 05:31:47;;;;;;;27.50;9.48;;;-3.20;99.90;;;;;;5001046;28;20037;-88
2022/01/11 05:34:13;;;;;;;32.95;11.02;;;-3.10;99.90;;;;;;4995725;28;20068;-88
2022/01/11 05:36:39;;;;;;;28.98;9.35;;;-3.10;99.90;;;;;;5010396;28;20042;-88
2022/01/11 05:39:04;;;;;;;23.85;8.43;;;-3.10;99.90;;;;;;4999895;28;20041;-88
2022/01/11 05:41:31;;;;;;;28.20;10.10;;;-3.10;99.90;;;;;;4994040;28;20041;-88
2022/01/11 05:43:57;;;;;;;24.48;8.85;;;-3.10;99.90;;;;;;5008803;28;20026;-88
2022/01/11 05:46:23;;;;;;;22.42;9.05;;;-3.10;99.90;;;;;;5019504;28;20168;-88
2022/01/11 05:48:48;;;;;;;31.85;9.32;;;-3.10;99.90;;;;;;4995082;28;20121;-88
2022/01/11 05:51:17;;;;;;;30.73;9.07;;;-3.00;99.90;;;;;;4993933;28;20193;-88
2022/01/11 05:53:49;;;;;;;21.45;8.48;;;-3.00;99.90;;;;;;5029061;28;20041;-88
2022/01/11 05:56:15;;;;;;;29.02;9.52;;;-3.00;99.90;;;;;;5013075;28;20053;-87
2022/01/11 05:58:41;;;;;;;39.17;9.43;;;-3.00;99.90;;;;;;5027499;28;20029;-87
2022/01/11 06:01:06;;;;;;;31.45;8.57;;;-2.90;99.90;;;;;;5018979;28;20502;-88
2022/01/11 06:03:32;;;;;;;38.30;10.27;;;-2.90;99.90;;;;;;5029293;28;20029;-88
2022/01/11 06:05:59;;;;;;;32.55;9.80;;;-2.90;99.90;;;;;;5012845;28;20033;-88
2022/01/11 06:08:25;;;;;;;36.67;9.85;;;-2.90;99.90;;;;;;5028055;28;20041;-88
2022/01/11 06:10:50;;;;;;;30.13;11.23;;;-2.80;99.90;;;;;;5029768;28;20473;-88
2022/01/11 06:13:16;;;;;;;32.85;10.63;;;-2.80;99.90;;;;;;5027715;28;20120;-88
2022/01/11 06:15:42;;;;;;;32.03;9.70;;;-2.80;99.90;;;;;;5021276;28;20057;-88
2022/01/11 06:18:12;;;;;;;31.23;10.27;;;-2.80;99.90;;;;;;5011728;28;20033;-88
2022/01/11 06:20:49;;;;;;;25.60;9.23;;;-2.70;99.90;;;;;;5031265;28;20554;-88
2022/01/11 06:23:19;;;;;;;41.03;10.15;;;-2.70;99.90;;;;;;5020668;28;20478;-88
2022/01/11 06:25:44;;;;;;;30.55;9.50;;;-2.60;99.90;;;;;;5014575;28;20030;-88
2022/01/11 06:28:10;;;;;;;25.38;8.82;;;-2.60;99.90;;;;;;5018266;28;20037;-88
2022/01/11 06:30:36;;;;;;;33.35;9.27;;;-2.60;99.90;;;;;;5009856;28;20124;-88
2022/01/11 06:33:04;;;;;;;42.13;9.38;;;-2.60;99.90;;;;;;5013876;28;20487;-88
2022/01/11 06:35:29;;;;;;;40.65;11.00;;;-2.60;99.90;;;;;;4993019;28;20044;-87
2022/01/11 06:37:55;;;;;;;35.97;9.63;;;-2.60;99.90;;;;;;5011923;28;20409;-88
2022/01/11 06:40:22;;;;;;;29.00;8.98;;;-2.50;99.90;;;;;;5010021;28;20025;-88
2022/01/11 06:42:53;;;;;;;43.78;9.05;;;-2.50;99.90;;;;;;4992882;28;20049;-88
2022/01/11 06:45:21;;;;;;;22.63;8.00;;;-2.40;99.90;;;;;;5025676;28;20022;-88
2022/01/11 06:47:47;;;;;;;30.20;9.57;;;-2.40;99.90;;;;;;5016434;28;20440;-88
2022/01/11 06:50:16;;;;;;;57.92;8.70;;;-2.40;99.90;;;;;;5012672;28;20030;-88
2022/01/11 06:52:42;;;;;;;86.57;8.98;;;-2.30;99.90;;;;;;5042862;28;20510;-88
2022/01/11 06:55:09;;;;;;;91.57;10.38;;;-2.30;99.90;;;;;;5009828;28;20068;-88
2022/01/11 06:57:35;;;;;;;47.88;11.20;;;-2.30;99.90;;;;;;5031542;28;20036;-88
2022/01/11 07:00:01;;;;;;;32.42;8.85;;;-2.30;99.90;;;;;;5002531;28;20030;-88
2022/01/11 07:02:28;;;;;;;31.15;9.43;;;-2.30;99.90;;;;;;5012365;28;20079;-88
2022/01/11 07:04:57;;;;;;;41.28;10.50;;;-2.30;99.90;;;;;;4991392;28;20041;-87
2022/01/11 07:07:22;;;;;;;62.20;13.00;;;-2.30;99.90;;;;;;5029087;28;20041;-88
2022/01/11 07:09:48;;;;;;;36.35;9.90;;;-2.30;99.90;;;;;;5010649;28;20390;-88
2022/01/11 07:12:14;;;;;;;39.58;10.48;;;-2.30;99.90;;;;;;5017612;28;20026;-88
2022/01/11 07:14:39;;;;;;;36.70;10.07;;;-2.40;99.90;;;;;;5016265;28;20033;-88
2022/01/11 07:17:05;;;;;;;38.33;10.50;;;-2.30;99.90;;;;;;5023870;28;20038;-88
2022/01/11 07:19:30;;;;;;;36.00;8.82;;;-2.30;99.90;;;;;;5013555;28;20037;-88
2022/01/11 07:21:59;;;;;;;70.22;14.48;;;-2.30;99.90;;;;;;5005073;28;20036;-88
2022/01/11 07:24:25;;;;;;;37.72;10.88;;;-2.40;99.90;;;;;;5027791;28;20479;-88
2022/01/11 07:26:56;;;;;;;52.08;12.15;;;-2.40;99.90;;;;;;5044181;28;20075;-88
2022/01/11 07:29:23;;;;;;;48.08;13.13;;;-2.50;99.90;;;;;;5010343;28;20289;-88
2022/01/11 07:31:55;;;;;;;75.88;13.73;;;-2.50;99.90;;;;;;5020557;28;20541;-88
2022/01/11 07:34:27;;;;;;;29.83;9.20;;;-2.50;99.90;;;;;;5003503;28;20061;-88
2022/01/11 07:36:53;;;;;;;46.08;8.50;;;-2.60;99.90;;;;;;5028240;28;20087;-88
2022/01/11 07:39:19;;;;;;;28.33;9.10;;;-2.60;99.90;;;;;;5020836;28;20030;-88
2022/01/11 07:41:44;;;;;;;44.85;8.70;;;-2.50;99.90;;;;;;5023658;28;20040;-89
2022/01/11 07:44:10;;;;;;;35.40;8.68;;;-2.50;99.90;;;;;;5027802;28;20120;-88
2022/01/11 07:46:39;;;;;;;35.75;7.90;;;-2.50;99.90;;;;;;5026856;28;20393;-88
2022/01/11 07:49:06;;;;;;;36.97;8.80;;;-2.50;99.90;;;;;;5035623;28;20042;-88
2022/01/11 07:51:31;;;;;;;25.85;7.63;;;-2.50;99.90;;;;;;5038473;28;20039;-88
2022/01/11 07:53:57;;;;;;;26.20;8.63;;;-2.50;99.90;;;;;;5025270;28;20026;-88
2022/01/11 07:56:23;;;;;;;69.18;9.57;;;-2.50;99.90;;;;;;4998696;28;20589;-87
2022/01/11 07:58:48;;;;;;;48.33;8.88;;;-2.50;99.90;;;;;;5029173;28;20044;-88
2022/01/11 08:01:15;;;;;;;29.75;8.88;;;-2.60;99.90;;;;;;5028183;28;20022;-88
2022/01/11 08:03:40;;;;;;;22.70;8.52;;;-2.60;99.90;;;;;;5028286;28;20406;-88
2022/01/11 08:06:09;;;;;;;75.43;9.32;;;-2.60;99.90;;;;;;5011628;28;20032;-88
2022/01/11 08:08:34;;;;;;;77.82;10.18;;;-2.60;99.90;;;;;;5028502;28;20036;-88
2022/01/11 08:11:00;;;;;;;32.63;9.45;;;-2.60;99.90;;;;;;5044903;28;20124;-88
2022/01/11 08:13:26;;;;;;;34.13;10.50;;;-2.60;99.90;;;;;;5000666;28;20048;-88
2022/01/11 08:15:52;;;;;;;55.92;9.35;;;-2.50;99.90;;;;;;5019046;28;20046;-88
2022/01/11 08:18:21;;;;;;;78.90;8.32;;;-2.50;99.90;;;;;;5005243;28;20508;-88
2022/01/11 08:20:51;;;;;;;30.40;8.93;;;-2.50;99.90;;;;;;5026999;28;20087;-88
2022/01/11 08:23:17;;;;;;;26.58;7.45;;;-2.50;99.90;;;;;;5028150;28;20275;-89
2022/01/11 08:25:43;;;;;;;47.30;8.55;;;-2.50;99.90;;;;;;5000129;28;20037;-88
2022/01/11 08:28:15;;;;;;;90.43;9.63;;;-2.40;99.90;;;;;;5025982;28;20513;-88
2022/01/11 08:30:45;;;;;;;38.40;7.43;;;-2.40;99.90;;;;;;5029180;28;20033;-88
2022/01/11 08:33:12;;;;;;;54.67;8.43;;;-2.50;99.90;;;;;;5044833;28;20035;-88
2022/01/11 08:35:40;;;;;;;49.08;8.43;;;-2.50;99.90;;;;;;5011554;28;20026;-88
2022/01/11 08:38:11;;;;;;;64.93;8.55;;;-2.50;99.90;;;;;;5045457;28;20032;-88
2022/01/11 08:40:41;;;;;;;22.25;7.90;;;-2.50;99.90;;;;;;5012219;28;20030;-88
2022/01/11 08:43:10;;;;;;;;;;;-2.50;99.90;;;;;;5014850;28;20041;-88
2022/01/11 08:45:36;;;;;;;30.63;8.38;;;-2.40;99.90;;;;;;5030057;28;19919;-88
2022/01/11 08:48:03;;;;;;;50.83;9.32;;;-2.50;99.90;;;;;;5013770;28;20029;-88
2022/01/11 08:50:29;;;;;;;25.10;8.65;;;-2.50;99.90;;;;;;5025511;28;20033;-88
2022/01/11 08:52:55;;;;;;;29.60;9.95;;;-2.50;99.90;;;;;;5027965;28;20033;-88
2022/01/11 08:55:20;;;;;;;25.58;9.18;;;-2.60;99.90;;;;;;5027896;28;20041;-88
2022/01/11 08:57:46;;;;;;;21.83;8.95;;;-2.60;99.90;;;;;;5011433;28;20484;-88
2022/01/11 09:00:18;;;;;;;26.35;8.98;;;-2.50;99.90;;;;;;5027910;28;20032;-88
2022/01/11 09:02:45;;;;;;;21.85;8.82;;;-2.50;99.90;;;;;;5028511;28;20402;-88
2022/01/11 09:05:11;;;;;;;22.48;8.63;;;-2.50;99.90;;;;;;4995222;28;20109;-88
2022/01/11 09:07:40;;;;;;;28.30;8.30;;;-2.50;99.90;;;;;;5009390;28;20124;-88
2022/01/11 09:10:07;;;;;;;27.77;8.88;;;-2.40;99.90;;;;;;5027134;28;20097;-88
2022/01/11 09:12:33;;;;;;;28.48;8.90;;;-2.30;99.90;;;;;;5037168;28;20034;-88
2022/01/11 09:14:59;;;;;;;27.98;8.98;;;-2.20;99.90;;;;;;5020944;28;20092;-88
2022/01/11 09:17:25;;;;;;;24.17;9.05;;;-2.20;99.90;;;;;;5022176;28;20434;-88
2022/01/11 09:19:51;;;;;;;25.33;8.27;;;-2.10;99.90;;;;;;5013173;28;20064;-88
2022/01/11 09:22:17;;;;;;;23.05;8.93;;;-2.00;99.90;;;;;;5029501;28;20037;-88
2022/01/11 09:24:43;;;;;;;21.35;8.85;;;-1.90;99.90;;;;;;5013962;28;20039;-88
2022/01/11 09:27:09;;;;;;;29.05;9.32;;;-1.90;99.90;;;;;;5031777;28;20053;-88
2022/01/11 09:29:39;;;;;;;23.95;9.85;;;-1.80;99.90;;;;;;5029314;28;20060;-88
2022/01/11 09:32:06;;;;;;;20.50;7.93;;;-1.80;99.90;;;;;;5001217;28;20038;-89
2022/01/11 09:34:31;;;;;;;24.50;9.18;;;-1.70;99.90;;;;;;5010404;28;20037;-88
2022/01/11 09:36:57;;;;;;;26.38;9.65;;;-1.70;99.90;;;;;;5013849;28;20432;-88
2022/01/11 09:39:27;;;;;;;27.80;9.07;;;-1.70;99.90;;;;;;5011002;28;20038;-88
2022/01/11 09:41:58;;;;;;;23.87;9.77;;;-1.60;99.90;;;;;;4994246;28;20045;-88
2022/01/11 09:44:25;;;;;;;23.38;8.98;;;-1.60;99.90;;;;;;5026968;28;20018;-89
2022/01/11 09:46:52;;;;;;;21.35;8.57;;;-1.60;99.90;;;;;;4994344;28;20406;-88
2022/01/11 09:49:18;;;;;;;21.05;9.13;;;-1.50;99.90;;;;;;5009980;28;20030;-88
2022/01/11 09:51:44;;;;;;;21.17;7.72;;;-1.50;99.90;;;;;;4994288;28;20056;-88
2022/01/11 09:54:09;;;;;;;21.80;8.55;;;-1.40;99.90;;;;;;5026943;28;20491;-88
2022/01/11 09:56:40;;;;;;;18.80;8.02;;;-1.40;99.90;;;;;;5010165;28;20033;-88
2022/01/11 09:59:06;;;;;;;21.10;8.50;;;-1.30;99.90;;;;;;5027005;28;20738;-89
2022/01/11 10:01:33;;;;;;;21.05;7.55;;;-1.20;99.90;;;;;;5010643;28;20037;-88
2022/01/11 10:04:11;;;;;;;19.08;7.80;;;-1.20;99.90;;;;;;5026581;28;20398;-88
2022/01/11 10:06:42;;;;;;;20.27;7.75;;;-1.10;99.90;;;;;;4995483;28;20130;-88
2022/01/11 10:09:22;;;;;;;19.02;7.90;;;-1.00;99.90;;;;;;4994438;28;20037;-88
2022/01/11 10:12:00;;;;;;;21.25;7.68;;;-0.90;99.90;;;;;;5010311;28;20048;-88
2022/01/11 10:14:31;;;;;;;20.40;9.63;;;-0.80;99.90;;;;;;5026162;28;20044;-89
2022/01/11 10:17:05;;;;;;;26.58;10.15;;;-0.70;99.90;;;;;;5010263;28;20030;-88
2022/01/11 10:19:32;;;;;;;26.42;10.35;;;-0.70;99.90;;;;;;5026550;28;20030;-88
2022/01/11 10:22:01;;;;;;;27.00;9.27;;;-0.60;99.90;;;;;;5026419;28;20034;-88
2022/01/11 10:24:35;;;;;;;25.30;9.85;;;-0.50;99.90;;;;;;4994008;28;20652;-88
2022/01/11 10:27:10;;;;;;;27.80;9.18;;;-0.50;99.90;;;;;;5026314;28;20029;-88
2022/01/11 10:29:40;;;;;;;23.92;9.15;;;-0.40;99.90;;;;;;5026446;28;20022;-88
2022/01/11 10:32:27;;;;;;;21.95;8.60;;;-0.30;99.90;;;;;;4993864;28;20049;-88
2022/01/11 10:35:11;;;;;;;23.55;8.38;;;-0.20;99.90;;;;;;5026371;28;20036;-88
2022/01/11 10:37:44;;;;;;;25.55;10.55;;;-0.10;99.90;;;;;;5010194;28;20030;-88
2022/01/11 10:40:14;;;;;;;24.75;10.80;;;0.00;99.90;;;;;;5011127;28;20032;-88
2022/01/11 10:42:46;;;;;;;26.98;10.63;;;0.10;99.90;;;;;;4993256;28;20099;-88
2022/01/11 10:45:20;;;;;;;29.13;11.98;;;0.20;99.90;;;;;;5009948;28;20117;-88
2022/01/11 10:47:53;;;;;;;31.85;11.93;;;0.30;99.90;;;;;;5010377;28;20026;-88
2022/01/11 10:50:34;;;;;;;37.38;13.43;;;0.40;99.90;;;;;;4993552;28;20079;-88
2022/01/11 10:53:03;;;;;;;29.73;11.40;;;0.50;99.90;;;;;;5009661;28;20084;-88
2022/01/11 10:55:39;;;;;;;31.10;12.35;;;0.60;99.90;;;;;;5009515;28;20029;-88
2022/01/11 10:58:07;;;;;;;25.08;10.40;;;0.70;99.90;;;;;;5025633;22;20113;-83
2022/01/11 11:00:36;;;;;;;26.40;10.95;;;0.80;99.90;;;;;;4991305;28;20030;-84
2022/01/11 11:03:12;;;;;;;20.75;9.40;;;0.90;99.90;;;;;;4990674;28;20473;-84
2022/01/11 11:05:49;;;;;;;26.77;10.35;;;1.00;99.90;;;;;;4989755;28;20026;-84
2022/01/11 11:08:20;;;;;;;26.98;9.68;;;1.10;99.90;;;;;;4989438;28;20034;-84
2022/01/11 11:10:59;;;;;;;29.70;10.88;;;1.10;99.90;;;;;;4958123;28;20022;-84
2022/01/11 11:13:33;;;;;;;24.45;9.27;;;1.20;99.90;;;;;;4990039;28;20023;-84
2022/01/11 11:16:30;;;;;;;24.67;9.50;;;1.30;99.90;;;;;;4989495;28;20028;-84
2022/01/11 11:18:58;;;;;;;25.33;9.40;;;1.40;99.90;;;;;;4974503;28;20030;-83
2022/01/11 11:21:37;;;;;;;27.55;10.93;;;1.50;99.90;;;;;;4989673;28;20031;-84
2022/01/11 11:24:14;;;;;;;23.23;9.75;;;1.50;99.90;;;;;;4991233;28;20065;-84
2022/01/11 11:26:51;;;;;;;26.67;9.48;;;1.50;99.90;;;;;;4990684;28;20444;-83
2022/01/11 11:29:22;;;;;;;29.52;10.80;;;1.50;99.90;;;;;;4989139;28;20033;-85
2022/01/11 11:31:52;;;;;;;27.40;10.40;;;1.60;99.90;;;;;;4958644;28;20058;-85
2022/01/11 11:34:23;;;;;;;28.80;10.85;;;1.60;99.90;;;;;;4989539;28;20128;-85
2022/01/11 11:36:56;;;;;;;30.25;12.55;;;1.50;99.90;;;;;;4990498;28;20022;-85
2022/01/11 11:39:26;;;;;;;33.25;12.40;;;1.40;99.90;;;;;;4973989;28;20400;-85
2022/01/11 11:42:01;;;;;;;30.65;11.93;;;1.30;99.90;;;;;;4972988;28;20426;-85
2022/01/11 11:44:29;;;;;;;30.05;11.75;;;1.20;99.90;;;;;;4958998;28;20395;-85
2022/01/11 11:47:03;;;;;;;28.35;11.57;;;1.10;99.90;;;;;;4989457;28;20023;-85
2022/01/11 11:49:45;;;;;;;33.78;12.10;;;1.20;99.90;;;;;;4989539;28;20026;-85
2022/01/11 11:52:25;;;;;;;36.60;12.18;;;1.20;99.90;;;;;;4989418;28;20067;-85
2022/01/11 11:54:55;;;;;;;26.27;11.38;;;1.20;99.90;;;;;;4989197;28;20040;-85
2022/01/11 11:57:22;;;;;;;;;;;1.30;99.90;;;;;;4989440;28;20458;-85
2022/01/11 12:00:07;;;;;;;27.27;11.57;;;1.30;99.90;;;;;;4973230;28;19916;-85
2022/01/11 12:02:44;;;;;;;28.33;11.13;;;1.40;99.90;;;;;;4973109;28;20061;-85
2022/01/11 12:05:34;;;;;;;29.10;11.18;;;1.50;99.90;;;;;;4990452;28;20027;-85
2022/01/11 12:08:36;;;;;;;28.92;11.40;;;1.60;99.90;;;;;;4988940;28;20495;-85
2022/01/11 12:11:17;;;;;;;29.52;11.07;;;1.60;99.90;;;;;;4990543;28;20045;-85
2022/01/11 12:13:55;;;;;;;29.00;10.45;;;1.70;99.90;;;;;;4991887;28;20116;-85
2022/01/11 12:16:35;;;;;;;26.65;11.13;;;1.70;99.90;;;;;;4976921;28;20035;-85
2022/01/11 12:19:07;;;;;;;23.23;9.02;;;1.70;99.90;;;;;;4992832;28;20069;-85
2022/01/11 12:21:54;;;;;;;19.73;9.18;;;1.70;99.90;;;;;;4992735;28;20059;-85
2022/01/11 12:24:46;;;;;;;26.65;10.48;;;1.80;99.90;;;;;;4992746;28;20029;-85
2022/01/11 12:27:22;;;;;;;23.25;10.48;;;1.80;99.90;;;;;;4993610;28;20050;-85
2022/01/11 12:30:09;;;;;;;34.72;10.98;;;1.90;99.90;;;;;;4992511;28;20027;-85
2022/01/11 12:32:56;;;;;;;27.83;11.38;;;1.90;99.90;;;;;;4992430;28;20046;-84
2022/01/11 12:35:24;;;;;;;28.60;11.70;;;2.00;99.90;;;;;;4978705;28;20434;-85
2022/01/11 12:38:08;;;;;;;30.50;12.55;;;2.10;99.90;;;;;;4976404;28;20550;-85
2022/01/11 12:40:40;;;;;;;24.20;10.38;;;2.10;99.90;;;;;;4994269;28;20059;-85
2022/01/11 12:43:07;;;;;;;29.00;10.93;;;2.20;99.90;;;;;;4977135;28;20037;-84
2022/01/11 12:46:08;;;;;;;25.45;11.00;;;2.30;99.90;;;;;;4992112;28;20037;-85
2022/01/11 12:48:44;;;;;;;24.40;11.07;;;2.30;99.90;;;;;;4976063;28;20122;-84